sensor_id;sensor_type;location;lat;lon;timestamp;P1;durP1;ratioP1;P2;durP2;ratioP2
5167;SDS011;2603;48.918;8.980;2023-07-29T00:00:50;4.53;;;3.00;;
5167;SDS011;2603;48.918;8.980;2023-07-29T00:03:17;6.87;;;2.10;;
5167;SDS011;2603;48.918;8.980;2023-07-29T00:05:44;3.60;;;2.30;;
5167;SDS011;2603;48.918;8.980;2023-07-29T00:08:10;6.00;;;2.50;;
5167;SDS011;2603;48.918;8.980;2023-07-29T00:10:37;10.60;;;2.13;;
5167;SDS011;2603;48.918;8.980;2023-07-29T00:13:03;3.43;;;1.90;;
5167;SDS011;2603;48.918;8.980;2023-07-29T00:15:30;8.63;;;3.33;;
5167;SDS011;2603;48.918;8.980;2023-07-29T00:17:56;3.67;;;1.90;;
5167;SDS011;2603;48.918;8.980;2023-07-29T00:20:24;6.23;;;2.73;;
5167;SDS011;2603;48.918;8.980;2023-07-29T00:22:51;7.20;;;2.87;;
5167;SDS011;2603;48.918;8.980;2023-07-29T00:25:19;5.30;;;2.63;;
5167;SDS011;2603;48.918;8.980;2023-07-29T00:27:45;6.73;;;2.57;;
5167;SDS011;2603;48.918;8.980;2023-07-29T00:30:11;8.60;;;3.43;;
5167;SDS011;2603;48.918;8.980;2023-07-29T00:32:38;7.27;;;3.43;;
5167;SDS011;2603;48.918;8.980;2023-07-29T00:35:05;8.17;;;2.47;;
5167;SDS011;2603;48.918;8.980;2023-07-29T00:37:34;11.07;;;4.50;;
5167;SDS011;2603;48.918;8.980;2023-07-29T00:40:03;8.27;;;4.80;;
5167;SDS011;2603;48.918;8.980;2023-07-29T00:42:31;5.30;;;2.40;;
5167;SDS011;2603;48.918;8.980;2023-07-29T00:44:57;5.70;;;2.20;;
5167;SDS011;2603;48.918;8.980;2023-07-29T00:47:25;9.40;;;2.07;;
5167;SDS011;2603;48.918;8.980;2023-07-29T00:49:51;11.40;;;2.60;;
5167;SDS011;2603;48.918;8.980;2023-07-29T00:52:18;13.60;;;5.80;;
5167;SDS011;2603;48.918;8.980;2023-07-29T00:54:46;21.50;;;7.03;;
5167;SDS011;2603;48.918;8.980;2023-07-29T00:57:13;23.87;;;8.90;;
5167;SDS011;2603;48.918;8.980;2023-07-29T00:59:41;21.70;;;8.90;;
5167;SDS011;2603;48.918;8.980;2023-07-29T01:02:07;9.97;;;3.90;;
5167;SDS011;2603;48.918;8.980;2023-07-29T01:04:34;5.10;;;3.10;;
5167;SDS011;2603;48.918;8.980;2023-07-29T01:07:03;6.30;;;2.43;;
5167;SDS011;2603;48.918;8.980;2023-07-29T01:09:33;4.20;;;2.40;;
5167;SDS011;2603;48.918;8.980;2023-07-29T01:12:07;4.10;;;2.17;;
5167;SDS011;2603;48.918;8.980;2023-07-29T01:14:38;6.53;;;1.73;;
5167;SDS011;2603;48.918;8.980;2023-07-29T01:17:09;4.50;;;2.57;;
5167;SDS011;2603;48.918;8.980;2023-07-29T01:19:45;4.90;;;2.47;;
5167;SDS011;2603;48.918;8.980;2023-07-29T01:22:15;4.00;;;2.10;;
5167;SDS011;2603;48.918;8.980;2023-07-29T01:24:43;3.40;;;2.23;;
5167;SDS011;2603;48.918;8.980;2023-07-29T01:27:10;4.60;;;2.10;;
5167;SDS011;2603;48.918;8.980;2023-07-29T01:29:36;9.27;;;2.60;;
5167;SDS011;2603;48.918;8.980;2023-07-29T01:32:04;3.53;;;1.80;;
5167;SDS011;2603;48.918;8.980;2023-07-29T01:34:35;5.73;;;1.60;;
5167;SDS011;2603;48.918;8.980;2023-07-29T01:37:05;2.63;;;1.90;;
5167;SDS011;2603;48.918;8.980;2023-07-29T01:39:33;3.30;;;2.13;;
5167;SDS011;2603;48.918;8.980;2023-07-29T01:42:03;9.33;;;2.27;;
5167;SDS011;2603;48.918;8.980;2023-07-29T01:44:30;5.30;;;2.47;;
5167;SDS011;2603;48.918;8.980;2023-07-29T01:46:57;5.00;;;2.77;;
5167;SDS011;2603;48.918;8.980;2023-07-29T01:49:23;3.97;;;2.60;;
5167;SDS011;2603;48.918;8.980;2023-07-29T01:51:50;11.43;;;2.50;;
5167;SDS011;2603;48.918;8.980;2023-07-29T01:54:17;11.93;;;3.20;;
5167;SDS011;2603;48.918;8.980;2023-07-29T01:56:44;4.13;;;2.03;;
5167;SDS011;2603;48.918;8.980;2023-07-29T01:59:12;6.20;;;1.97;;
5167;SDS011;2603;48.918;8.980;2023-07-29T02:01:41;8.53;;;2.77;;
5167;SDS011;2603;48.918;8.980;2023-07-29T02:04:08;3.97;;;2.20;;
5167;SDS011;2603;48.918;8.980;2023-07-29T02:06:35;8.93;;;2.63;;
5167;SDS011;2603;48.918;8.980;2023-07-29T02:09:01;8.90;;;2.40;;
5167;SDS011;2603;48.918;8.980;2023-07-29T02:11:29;5.30;;;1.70;;
5167;SDS011;2603;48.918;8.980;2023-07-29T02:13:56;2.97;;;1.57;;
5167;SDS011;2603;48.918;8.980;2023-07-29T02:16:24;11.00;;;2.03;;
5167;SDS011;2603;48.918;8.980;2023-07-29T02:18:51;3.30;;;1.87;;
5167;SDS011;2603;48.918;8.980;2023-07-29T02:21:17;3.90;;;1.57;;
5167;SDS011;2603;48.918;8.980;2023-07-29T02:23:44;12.97;;;2.50;;
5167;SDS011;2603;48.918;8.980;2023-07-29T02:26:11;2.27;;;1.77;;
5167;SDS011;2603;48.918;8.980;2023-07-29T02:28:37;3.50;;;1.50;;
5167;SDS011;2603;48.918;8.980;2023-07-29T02:31:14;3.37;;;1.30;;
5167;SDS011;2603;48.918;8.980;2023-07-29T02:33:43;3.97;;;1.70;;
5167;SDS011;2603;48.918;8.980;2023-07-29T02:36:11;5.50;;;2.10;;
5167;SDS011;2603;48.918;8.980;2023-07-29T02:38:39;2.10;;;1.43;;
5167;SDS011;2603;48.918;8.980;2023-07-29T02:41:05;4.13;;;1.17;;
5167;SDS011;2603;48.918;8.980;2023-07-29T02:43:34;3.47;;;1.60;;
5167;SDS011;2603;48.918;8.980;2023-07-29T02:46:00;2.80;;;1.77;;
5167;SDS011;2603;48.918;8.980;2023-07-29T02:48:27;1.97;;;1.33;;
5167;SDS011;2603;48.918;8.980;2023-07-29T02:50:55;4.20;;;1.50;;
5167;SDS011;2603;48.918;8.980;2023-07-29T02:53:22;2.17;;;1.50;;
5167;SDS011;2603;48.918;8.980;2023-07-29T02:55:48;4.13;;;1.70;;
5167;SDS011;2603;48.918;8.980;2023-07-29T02:58:15;7.43;;;1.73;;
5167;SDS011;2603;48.918;8.980;2023-07-29T03:00:42;2.23;;;1.30;;
5167;SDS011;2603;48.918;8.980;2023-07-29T03:03:09;2.93;;;1.60;;
5167;SDS011;2603;48.918;8.980;2023-07-29T03:05:35;4.20;;;1.53;;
5167;SDS011;2603;48.918;8.980;2023-07-29T03:08:04;2.67;;;1.20;;
5167;SDS011;2603;48.918;8.980;2023-07-29T03:10:31;4.83;;;1.40;;
5167;SDS011;2603;48.918;8.980;2023-07-29T03:12:57;10.17;;;1.60;;
5167;SDS011;2603;48.918;8.980;2023-07-29T03:15:24;3.53;;;1.70;;
5167;SDS011;2603;48.918;8.980;2023-07-29T03:17:51;2.47;;;1.37;;
5167;SDS011;2603;48.918;8.980;2023-07-29T03:20:19;3.13;;;1.37;;
5167;SDS011;2603;48.918;8.980;2023-07-29T03:22:46;3.70;;;1.50;;
5167;SDS011;2603;48.918;8.980;2023-07-29T03:25:14;9.00;;;1.97;;
5167;SDS011;2603;48.918;8.980;2023-07-29T03:27:41;3.90;;;1.67;;
5167;SDS011;2603;48.918;8.980;2023-07-29T03:30:08;4.40;;;1.67;;
5167;SDS011;2603;48.918;8.980;2023-07-29T03:32:35;2.90;;;1.70;;
5167;SDS011;2603;48.918;8.980;2023-07-29T03:35:01;2.30;;;1.27;;
5167;SDS011;2603;48.918;8.980;2023-07-29T03:37:28;2.23;;;1.20;;
5167;SDS011;2603;48.918;8.980;2023-07-29T03:39:55;3.47;;;1.73;;
5167;SDS011;2603;48.918;8.980;2023-07-29T03:42:23;3.20;;;1.30;;
5167;SDS011;2603;48.918;8.980;2023-07-29T03:44:50;5.03;;;1.47;;
5167;SDS011;2603;48.918;8.980;2023-07-29T03:47:16;3.00;;;1.40;;
5167;SDS011;2603;48.918;8.980;2023-07-29T03:49:43;8.43;;;1.97;;
5167;SDS011;2603;48.918;8.980;2023-07-29T03:52:10;9.43;;;1.70;;
5167;SDS011;2603;48.918;8.980;2023-07-29T03:54:37;5.57;;;1.70;;
5167;SDS011;2603;48.918;8.980;2023-07-29T03:57:04;3.30;;;1.80;;
5167;SDS011;2603;48.918;8.980;2023-07-29T03:59:32;2.33;;;1.43;;
5167;SDS011;2603;48.918;8.980;2023-07-29T04:01:58;4.43;;;1.50;;
5167;SDS011;2603;48.918;8.980;2023-07-29T04:04:25;2.30;;;1.43;;
5167;SDS011;2603;48.918;8.980;2023-07-29T04:06:52;3.40;;;1.57;;
5167;SDS011;2603;48.918;8.980;2023-07-29T04:09:18;12.50;;;1.50;;
5167;SDS011;2603;48.918;8.980;2023-07-29T04:11:45;3.40;;;1.60;;
5167;SDS011;2603;48.918;8.980;2023-07-29T04:14:11;5.37;;;1.70;;
5167;SDS011;2603;48.918;8.980;2023-07-29T04:16:39;9.67;;;2.40;;
5167;SDS011;2603;48.918;8.980;2023-07-29T04:19:06;7.30;;;1.40;;
5167;SDS011;2603;48.918;8.980;2023-07-29T04:21:33;7.60;;;1.63;;
5167;SDS011;2603;48.918;8.980;2023-07-29T04:24:00;2.20;;;1.30;;
5167;SDS011;2603;48.918;8.980;2023-07-29T04:26:27;6.30;;;1.60;;
5167;SDS011;2603;48.918;8.980;2023-07-29T04:28:54;3.07;;;1.83;;
5167;SDS011;2603;48.918;8.980;2023-07-29T04:31:20;2.97;;;1.73;;
5167;SDS011;2603;48.918;8.980;2023-07-29T04:33:48;5.03;;;1.70;;
5167;SDS011;2603;48.918;8.980;2023-07-29T04:36:16;3.77;;;1.37;;
5167;SDS011;2603;48.918;8.980;2023-07-29T04:38:44;5.93;;;1.43;;
5167;SDS011;2603;48.918;8.980;2023-07-29T04:41:10;6.90;;;1.43;;
5167;SDS011;2603;48.918;8.980;2023-07-29T04:43:37;3.23;;;1.57;;
5167;SDS011;2603;48.918;8.980;2023-07-29T04:46:06;4.07;;;1.77;;
5167;SDS011;2603;48.918;8.980;2023-07-29T04:48:33;10.67;;;2.70;;
5167;SDS011;2603;48.918;8.980;2023-07-29T04:51:00;5.80;;;2.17;;
5167;SDS011;2603;48.918;8.980;2023-07-29T04:53:27;6.80;;;2.17;;
5167;SDS011;2603;48.918;8.980;2023-07-29T04:55:53;4.27;;;1.83;;
5167;SDS011;2603;48.918;8.980;2023-07-29T04:58:20;5.10;;;1.53;;
5167;SDS011;2603;48.918;8.980;2023-07-29T05:00:47;8.13;;;2.10;;
5167;SDS011;2603;48.918;8.980;2023-07-29T05:03:13;4.40;;;2.00;;
5167;SDS011;2603;48.918;8.980;2023-07-29T05:05:41;2.60;;;1.50;;
5167;SDS011;2603;48.918;8.980;2023-07-29T05:08:10;4.83;;;1.57;;
5167;SDS011;2603;48.918;8.980;2023-07-29T05:10:37;3.77;;;1.80;;
5167;SDS011;2603;48.918;8.980;2023-07-29T05:13:03;3.40;;;1.87;;
5167;SDS011;2603;48.918;8.980;2023-07-29T05:15:30;5.27;;;2.03;;
5167;SDS011;2603;48.918;8.980;2023-07-29T05:17:56;2.50;;;1.87;;
5167;SDS011;2603;48.918;8.980;2023-07-29T05:20:23;3.90;;;2.00;;
5167;SDS011;2603;48.918;8.980;2023-07-29T05:22:50;5.03;;;1.70;;
5167;SDS011;2603;48.918;8.980;2023-07-29T05:25:18;3.90;;;1.80;;
5167;SDS011;2603;48.918;8.980;2023-07-29T05:27:44;2.63;;;1.53;;
5167;SDS011;2603;48.918;8.980;2023-07-29T05:30:11;4.23;;;1.83;;
5167;SDS011;2603;48.918;8.980;2023-07-29T05:32:37;4.97;;;1.83;;
5167;SDS011;2603;48.918;8.980;2023-07-29T05:35:05;5.70;;;1.30;;
5167;SDS011;2603;48.918;8.980;2023-07-29T05:37:32;2.27;;;1.20;;
5167;SDS011;2603;48.918;8.980;2023-07-29T05:39:59;4.13;;;1.80;;
5167;SDS011;2603;48.918;8.980;2023-07-29T05:42:27;2.27;;;1.37;;
5167;SDS011;2603;48.918;8.980;2023-07-29T05:44:54;2.03;;;1.33;;
5167;SDS011;2603;48.918;8.980;2023-07-29T05:47:20;6.30;;;2.13;;
5167;SDS011;2603;48.918;8.980;2023-07-29T05:49:47;5.80;;;1.47;;
5167;SDS011;2603;48.918;8.980;2023-07-29T05:52:13;5.60;;;1.30;;
5167;SDS011;2603;48.918;8.980;2023-07-29T05:54:40;6.63;;;3.90;;
5167;SDS011;2603;48.918;8.980;2023-07-29T05:57:08;5.40;;;3.00;;
5167;SDS011;2603;48.918;8.980;2023-07-29T05:59:36;12.73;;;8.47;;
5167;SDS011;2603;48.918;8.980;2023-07-29T06:02:03;3.57;;;2.20;;
5167;SDS011;2603;48.918;8.980;2023-07-29T06:04:30;2.87;;;1.40;;
5167;SDS011;2603;48.918;8.980;2023-07-29T06:06:56;2.73;;;1.63;;
5167;SDS011;2603;48.918;8.980;2023-07-29T06:09:23;5.53;;;1.40;;
5167;SDS011;2603;48.918;8.980;2023-07-29T06:11:50;7.13;;;1.33;;
5167;SDS011;2603;48.918;8.980;2023-07-29T06:14:17;2.97;;;1.23;;
5167;SDS011;2603;48.918;8.980;2023-07-29T06:16:45;6.23;;;2.00;;
5167;SDS011;2603;48.918;8.980;2023-07-29T06:19:11;4.20;;;1.47;;
5167;SDS011;2603;48.918;8.980;2023-07-29T06:21:38;7.93;;;1.53;;
5167;SDS011;2603;48.918;8.980;2023-07-29T06:24:04;6.93;;;1.70;;
5167;SDS011;2603;48.918;8.980;2023-07-29T06:26:31;2.27;;;1.57;;
5167;SDS011;2603;48.918;8.980;2023-07-29T06:28:58;3.10;;;1.27;;
5167;SDS011;2603;48.918;8.980;2023-07-29T06:31:24;2.90;;;1.30;;
5167;SDS011;2603;48.918;8.980;2023-07-29T06:33:52;2.07;;;1.30;;
5167;SDS011;2603;48.918;8.980;2023-07-29T06:36:19;4.40;;;1.50;;
5167;SDS011;2603;48.918;8.980;2023-07-29T06:38:46;2.50;;;1.43;;
5167;SDS011;2603;48.918;8.980;2023-07-29T06:41:13;3.80;;;1.60;;
5167;SDS011;2603;48.918;8.980;2023-07-29T06:43:41;3.00;;;1.23;;
5167;SDS011;2603;48.918;8.980;2023-07-29T06:46:08;3.60;;;1.33;;
5167;SDS011;2603;48.918;8.980;2023-07-29T06:48:34;3.40;;;1.00;;
5167;SDS011;2603;48.918;8.980;2023-07-29T06:51:02;3.03;;;1.10;;
5167;SDS011;2603;48.918;8.980;2023-07-29T06:53:29;1.83;;;1.13;;
5167;SDS011;2603;48.918;8.980;2023-07-29T06:55:56;1.83;;;1.00;;
5167;SDS011;2603;48.918;8.980;2023-07-29T06:58:23;2.80;;;1.00;;
5167;SDS011;2603;48.918;8.980;2023-07-29T07:00:49;3.33;;;1.30;;
5167;SDS011;2603;48.918;8.980;2023-07-29T07:03:16;1.50;;;1.00;;
5167;SDS011;2603;48.918;8.980;2023-07-29T07:05:42;2.10;;;1.10;;
5167;SDS011;2603;48.918;8.980;2023-07-29T07:08:10;2.10;;;1.30;;
5167;SDS011;2603;48.918;8.980;2023-07-29T07:10:37;3.37;;;1.00;;
5167;SDS011;2603;48.918;8.980;2023-07-29T07:13:03;2.20;;;1.40;;
5167;SDS011;2603;48.918;8.980;2023-07-29T07:15:30;7.33;;;1.20;;
5167;SDS011;2603;48.918;8.980;2023-07-29T07:17:57;1.93;;;1.10;;
5167;SDS011;2603;48.918;8.980;2023-07-29T07:20:23;2.97;;;1.10;;
5167;SDS011;2603;48.918;8.980;2023-07-29T07:22:50;2.67;;;1.20;;
5167;SDS011;2603;48.918;8.980;2023-07-29T07:25:18;1.80;;;1.10;;
5167;SDS011;2603;48.918;8.980;2023-07-29T07:27:44;4.07;;;1.37;;
5167;SDS011;2603;48.918;8.980;2023-07-29T07:30:11;1.47;;;0.90;;
5167;SDS011;2603;48.918;8.980;2023-07-29T07:32:37;2.60;;;1.40;;
5167;SDS011;2603;48.918;8.980;2023-07-29T07:35:04;4.03;;;1.30;;
5167;SDS011;2603;48.918;8.980;2023-07-29T07:37:31;2.00;;;1.17;;
5167;SDS011;2603;48.918;8.980;2023-07-29T07:39:57;3.83;;;1.20;;
5167;SDS011;2603;48.918;8.980;2023-07-29T07:42:25;4.93;;;1.23;;
5167;SDS011;2603;48.918;8.980;2023-07-29T07:44:52;2.40;;;0.87;;
5167;SDS011;2603;48.918;8.980;2023-07-29T07:47:18;3.47;;;1.60;;
5167;SDS011;2603;48.918;8.980;2023-07-29T07:49:45;3.97;;;1.13;;
5167;SDS011;2603;48.918;8.980;2023-07-29T07:52:14;2.33;;;1.30;;
5167;SDS011;2603;48.918;8.980;2023-07-29T07:54:40;2.63;;;1.07;;
5167;SDS011;2603;48.918;8.980;2023-07-29T07:57:07;1.80;;;1.17;;
5167;SDS011;2603;48.918;8.980;2023-07-29T07:59:35;1.90;;;0.90;;
5167;SDS011;2603;48.918;8.980;2023-07-29T08:02:01;2.03;;;1.00;;
5167;SDS011;2603;48.918;8.980;2023-07-29T08:04:28;6.30;;;1.17;;
5167;SDS011;2603;48.918;8.980;2023-07-29T08:06:55;2.67;;;0.93;;
5167;SDS011;2603;48.918;8.980;2023-07-29T08:09:21;3.47;;;0.87;;
5167;SDS011;2603;48.918;8.980;2023-07-29T08:11:48;4.23;;;0.97;;
5167;SDS011;2603;48.918;8.980;2023-07-29T08:14:14;1.70;;;0.73;;
5167;SDS011;2603;48.918;8.980;2023-07-29T08:16:42;4.33;;;1.40;;
5167;SDS011;2603;48.918;8.980;2023-07-29T08:19:09;2.37;;;0.83;;
5167;SDS011;2603;48.918;8.980;2023-07-29T08:21:35;2.00;;;1.00;;
5167;SDS011;2603;48.918;8.980;2023-07-29T08:24:02;2.20;;;0.90;;
5167;SDS011;2603;48.918;8.980;2023-07-29T08:26:29;2.40;;;1.00;;
5167;SDS011;2603;48.918;8.980;2023-07-29T08:28:56;1.87;;;1.13;;
5167;SDS011;2603;48.918;8.980;2023-07-29T08:31:23;1.73;;;0.80;;
5167;SDS011;2603;48.918;8.980;2023-07-29T08:33:51;6.10;;;1.33;;
5167;SDS011;2603;48.918;8.980;2023-07-29T08:36:17;1.83;;;1.00;;
5167;SDS011;2603;48.918;8.980;2023-07-29T08:38:44;1.43;;;0.77;;
5167;SDS011;2603;48.918;8.980;2023-07-29T08:41:13;5.63;;;1.13;;
5167;SDS011;2603;48.918;8.980;2023-07-29T08:43:41;1.60;;;0.90;;
5167;SDS011;2603;48.918;8.980;2023-07-29T08:46:10;6.20;;;1.13;;
5167;SDS011;2603;48.918;8.980;2023-07-29T08:48:39;1.50;;;0.70;;
5167;SDS011;2603;48.918;8.980;2023-07-29T08:51:08;4.30;;;1.00;;
5167;SDS011;2603;48.918;8.980;2023-07-29T08:53:35;1.70;;;0.80;;
5167;SDS011;2603;48.918;8.980;2023-07-29T08:56:02;3.70;;;1.20;;
5167;SDS011;2603;48.918;8.980;2023-07-29T08:58:30;4.73;;;1.10;;
5167;SDS011;2603;48.918;8.980;2023-07-29T09:00:56;2.37;;;1.20;;
5167;SDS011;2603;48.918;8.980;2023-07-29T09:03:23;1.60;;;0.80;;
5167;SDS011;2603;48.918;8.980;2023-07-29T09:05:49;3.93;;;1.00;;
5167;SDS011;2603;48.918;8.980;2023-07-29T09:08:18;7.17;;;0.90;;
5167;SDS011;2603;48.918;8.980;2023-07-29T09:10:46;3.47;;;0.87;;
5167;SDS011;2603;48.918;8.980;2023-07-29T09:13:12;1.40;;;0.67;;
5167;SDS011;2603;48.918;8.980;2023-07-29T09:15:40;2.47;;;1.07;;
5167;SDS011;2603;48.918;8.980;2023-07-29T09:18:10;1.40;;;0.77;;
5167;SDS011;2603;48.918;8.980;2023-07-29T09:20:37;3.27;;;0.77;;
5167;SDS011;2603;48.918;8.980;2023-07-29T09:23:06;1.50;;;0.70;;
5167;SDS011;2603;48.918;8.980;2023-07-29T09:25:34;2.07;;;0.90;;
5167;SDS011;2603;48.918;8.980;2023-07-29T09:28:01;1.77;;;0.90;;
5167;SDS011;2603;48.918;8.980;2023-07-29T09:30:28;2.17;;;0.90;;
5167;SDS011;2603;48.918;8.980;2023-07-29T09:32:55;1.63;;;0.70;;
5167;SDS011;2603;48.918;8.980;2023-07-29T09:35:22;1.97;;;1.10;;
5167;SDS011;2603;48.918;8.980;2023-07-29T09:37:49;1.77;;;0.90;;
5167;SDS011;2603;48.918;8.980;2023-07-29T09:40:17;2.10;;;1.07;;
5167;SDS011;2603;48.918;8.980;2023-07-29T09:42:49;2.80;;;1.23;;
5167;SDS011;2603;48.918;8.980;2023-07-29T09:45:23;1.70;;;1.00;;
5167;SDS011;2603;48.918;8.980;2023-07-29T09:47:50;2.50;;;0.93;;
5167;SDS011;2603;48.918;8.980;2023-07-29T09:50:17;2.10;;;1.03;;
5167;SDS011;2603;48.918;8.980;2023-07-29T09:52:44;2.50;;;1.00;;
5167;SDS011;2603;48.918;8.980;2023-07-29T09:55:11;1.67;;;0.90;;
5167;SDS011;2603;48.918;8.980;2023-07-29T09:57:38;3.73;;;1.07;;
5167;SDS011;2603;48.918;8.980;2023-07-29T10:00:07;4.03;;;1.00;;
5167;SDS011;2603;48.918;8.980;2023-07-29T10:02:37;2.07;;;0.90;;
5167;SDS011;2603;48.918;8.980;2023-07-29T10:05:05;2.93;;;0.87;;
5167;SDS011;2603;48.918;8.980;2023-07-29T10:07:33;10.90;;;1.13;;
5167;SDS011;2603;48.918;8.980;2023-07-29T10:10:01;1.73;;;1.07;;
5167;SDS011;2603;48.918;8.980;2023-07-29T10:12:29;2.43;;;1.07;;
5167;SDS011;2603;48.918;8.980;2023-07-29T10:14:57;2.23;;;1.40;;
5167;SDS011;2603;48.918;8.980;2023-07-29T10:17:27;2.30;;;1.10;;
5167;SDS011;2603;48.918;8.980;2023-07-29T10:19:53;2.10;;;1.10;;
5167;SDS011;2603;48.918;8.980;2023-07-29T10:22:22;2.23;;;1.10;;
5167;SDS011;2603;48.918;8.980;2023-07-29T10:24:51;2.30;;;1.43;;
5167;SDS011;2603;48.918;8.980;2023-07-29T10:27:19;2.83;;;1.00;;
5167;SDS011;2603;48.918;8.980;2023-07-29T10:29:47;1.40;;;0.80;;
5167;SDS011;2603;48.918;8.980;2023-07-29T10:32:14;5.00;;;0.90;;
5167;SDS011;2603;48.918;8.980;2023-07-29T10:34:42;3.13;;;1.10;;
5167;SDS011;2603;48.918;8.980;2023-07-29T10:37:09;1.90;;;0.70;;
5167;SDS011;2603;48.918;8.980;2023-07-29T10:39:39;2.37;;;0.83;;
5167;SDS011;2603;48.918;8.980;2023-07-29T10:42:06;2.70;;;0.93;;
5167;SDS011;2603;48.918;8.980;2023-07-29T10:47:18;1.60;;;0.80;;
5167;SDS011;2603;48.918;8.980;2023-07-29T10:49:49;2.70;;;1.03;;
5167;SDS011;2603;48.918;8.980;2023-07-29T10:52:17;2.40;;;0.90;;
5167;SDS011;2603;48.918;8.980;2023-07-29T10:54:57;2.17;;;0.90;;
5167;SDS011;2603;48.918;8.980;2023-07-29T10:57:30;7.00;;;0.93;;
5167;SDS011;2603;48.918;8.980;2023-07-29T10:59:58;1.20;;;0.60;;
5167;SDS011;2603;48.918;8.980;2023-07-29T11:02:28;1.67;;;0.63;;
5167;SDS011;2603;48.918;8.980;2023-07-29T11:04:57;1.57;;;0.80;;
5167;SDS011;2603;48.918;8.980;2023-07-29T11:07:25;6.27;;;0.73;;
5167;SDS011;2603;48.918;8.980;2023-07-29T11:09:54;1.70;;;0.77;;
5167;SDS011;2603;48.918;8.980;2023-07-29T11:12:38;1.53;;;0.70;;
5167;SDS011;2603;48.918;8.980;2023-07-29T11:15:17;3.63;;;0.93;;
5167;SDS011;2603;48.918;8.980;2023-07-29T11:17:46;2.00;;;0.80;;
5167;SDS011;2603;48.918;8.980;2023-07-29T11:20:16;1.20;;;0.70;;
5167;SDS011;2603;48.918;8.980;2023-07-29T11:22:42;1.87;;;0.80;;
5167;SDS011;2603;48.918;8.980;2023-07-29T11:25:10;3.50;;;0.80;;
5167;SDS011;2603;48.918;8.980;2023-07-29T11:27:37;3.20;;;0.70;;
5167;SDS011;2603;48.918;8.980;2023-07-29T11:30:05;1.60;;;0.70;;
5167;SDS011;2603;48.918;8.980;2023-07-29T11:32:33;1.53;;;0.90;;
5167;SDS011;2603;48.918;8.980;2023-07-29T11:35:03;3.23;;;0.80;;
5167;SDS011;2603;48.918;8.980;2023-07-29T11:37:32;2.47;;;1.00;;
5167;SDS011;2603;48.918;8.980;2023-07-29T11:39:58;1.40;;;0.90;;
5167;SDS011;2603;48.918;8.980;2023-07-29T11:42:26;5.13;;;0.80;;
5167;SDS011;2603;48.918;8.980;2023-07-29T11:44:53;2.00;;;0.80;;
5167;SDS011;2603;48.918;8.980;2023-07-29T11:47:19;1.80;;;1.10;;
5167;SDS011;2603;48.918;8.980;2023-07-29T11:49:46;2.30;;;0.93;;
5167;SDS011;2603;48.918;8.980;2023-07-29T11:52:12;1.93;;;0.93;;
5167;SDS011;2603;48.918;8.980;2023-07-29T11:54:40;2.90;;;1.20;;
5167;SDS011;2603;48.918;8.980;2023-07-29T11:57:07;5.30;;;1.00;;
5167;SDS011;2603;48.918;8.980;2023-07-29T11:59:34;1.33;;;0.70;;
5167;SDS011;2603;48.918;8.980;2023-07-29T12:02:01;3.93;;;0.80;;
5167;SDS011;2603;48.918;8.980;2023-07-29T12:04:31;1.87;;;1.10;;
5167;SDS011;2603;48.918;8.980;2023-07-29T12:06:58;1.70;;;1.00;;
5167;SDS011;2603;48.918;8.980;2023-07-29T12:09:25;2.07;;;1.23;;
5167;SDS011;2603;48.918;8.980;2023-07-29T12:11:54;5.13;;;1.33;;
5167;SDS011;2603;48.918;8.980;2023-07-29T12:14:21;1.40;;;0.80;;
5167;SDS011;2603;48.918;8.980;2023-07-29T12:16:47;2.70;;;0.90;;
5167;SDS011;2603;48.918;8.980;2023-07-29T12:19:14;2.80;;;1.17;;
5167;SDS011;2603;48.918;8.980;2023-07-29T12:21:42;3.20;;;0.93;;
5167;SDS011;2603;48.918;8.980;2023-07-29T12:24:09;5.23;;;0.83;;
5167;SDS011;2603;48.918;8.980;2023-07-29T12:26:38;2.03;;;1.30;;
5167;SDS011;2603;48.918;8.980;2023-07-29T12:29:12;1.90;;;1.13;;
5167;SDS011;2603;48.918;8.980;2023-07-29T12:31:39;1.73;;;1.10;;
5167;SDS011;2603;48.918;8.980;2023-07-29T12:34:05;1.87;;;1.20;;
5167;SDS011;2603;48.918;8.980;2023-07-29T12:36:41;1.87;;;1.13;;
5167;SDS011;2603;48.918;8.980;2023-07-29T12:39:15;2.70;;;1.27;;
5167;SDS011;2603;48.918;8.980;2023-07-29T12:41:42;1.90;;;1.00;;
5167;SDS011;2603;48.918;8.980;2023-07-29T12:44:08;1.97;;;0.97;;
5167;SDS011;2603;48.918;8.980;2023-07-29T12:46:36;5.60;;;1.30;;
5167;SDS011;2603;48.918;8.980;2023-07-29T12:49:03;3.57;;;0.97;;
5167;SDS011;2603;48.918;8.980;2023-07-29T12:51:30;1.67;;;0.97;;
5167;SDS011;2603;48.918;8.980;2023-07-29T12:53:56;2.40;;;1.40;;
5167;SDS011;2603;48.918;8.980;2023-07-29T12:56:23;2.77;;;1.40;;
5167;SDS011;2603;48.918;8.980;2023-07-29T12:58:50;1.97;;;1.03;;
5167;SDS011;2603;48.918;8.980;2023-07-29T13:01:17;4.17;;;1.80;;
5167;SDS011;2603;48.918;8.980;2023-07-29T13:03:46;2.47;;;1.40;;
5167;SDS011;2603;48.918;8.980;2023-07-29T13:06:13;2.20;;;1.00;;
5167;SDS011;2603;48.918;8.980;2023-07-29T13:08:40;2.57;;;1.53;;
5167;SDS011;2603;48.918;8.980;2023-07-29T13:11:07;2.10;;;1.20;;
5167;SDS011;2603;48.918;8.980;2023-07-29T13:13:34;2.27;;;1.30;;
5167;SDS011;2603;48.918;8.980;2023-07-29T13:16:00;1.97;;;1.20;;
5167;SDS011;2603;48.918;8.980;2023-07-29T13:18:27;2.50;;;1.20;;
5167;SDS011;2603;48.918;8.980;2023-07-29T13:20:55;2.57;;;1.13;;
5167;SDS011;2603;48.918;8.980;2023-07-29T13:23:22;3.30;;;1.20;;
5167;SDS011;2603;48.918;8.980;2023-07-29T13:25:49;2.10;;;1.23;;
5167;SDS011;2603;48.918;8.980;2023-07-29T13:28:16;3.70;;;0.90;;
5167;SDS011;2603;48.918;8.980;2023-07-29T13:30:42;3.10;;;1.60;;
5167;SDS011;2603;48.918;8.980;2023-07-29T13:33:09;2.33;;;1.20;;
5167;SDS011;2603;48.918;8.980;2023-07-29T13:35:35;2.83;;;1.17;;
5167;SDS011;2603;48.918;8.980;2023-07-29T13:38:03;2.43;;;1.30;;
5167;SDS011;2603;48.918;8.980;2023-07-29T13:40:31;2.47;;;1.20;;
5167;SDS011;2603;48.918;8.980;2023-07-29T13:42:58;2.90;;;1.23;;
5167;SDS011;2603;48.918;8.980;2023-07-29T13:45:24;4.00;;;1.23;;
5167;SDS011;2603;48.918;8.980;2023-07-29T13:47:51;4.07;;;1.70;;
5167;SDS011;2603;48.918;8.980;2023-07-29T13:50:17;2.07;;;1.20;;
5167;SDS011;2603;48.918;8.980;2023-07-29T13:52:44;1.80;;;1.00;;
5167;SDS011;2603;48.918;8.980;2023-07-29T13:55:12;1.53;;;0.90;;
5167;SDS011;2603;48.918;8.980;2023-07-29T13:57:39;1.97;;;1.10;;
5167;SDS011;2603;48.918;8.980;2023-07-29T14:00:06;1.77;;;1.00;;
5167;SDS011;2603;48.918;8.980;2023-07-29T14:02:39;2.67;;;1.40;;
5167;SDS011;2603;48.918;8.980;2023-07-29T14:05:06;6.20;;;1.50;;
5167;SDS011;2603;48.918;8.980;2023-07-29T14:07:33;2.87;;;1.40;;
5167;SDS011;2603;48.918;8.980;2023-07-29T14:09:59;1.90;;;1.37;;
5167;SDS011;2603;48.918;8.980;2023-07-29T14:12:27;2.00;;;1.10;;
5167;SDS011;2603;48.918;8.980;2023-07-29T14:14:54;2.90;;;1.37;;
5167;SDS011;2603;48.918;8.980;2023-07-29T14:17:20;1.87;;;1.17;;
5167;SDS011;2603;48.918;8.980;2023-07-29T14:19:47;2.43;;;1.30;;
5167;SDS011;2603;48.918;8.980;2023-07-29T14:22:13;4.20;;;1.33;;
5167;SDS011;2603;48.918;8.980;2023-07-29T14:24:40;2.70;;;1.50;;
5167;SDS011;2603;48.918;8.980;2023-07-29T14:27:06;6.10;;;1.63;;
5167;SDS011;2603;48.918;8.980;2023-07-29T14:29:34;2.17;;;1.23;;
5167;SDS011;2603;48.918;8.980;2023-07-29T14:32:00;4.33;;;1.20;;
5167;SDS011;2603;48.918;8.980;2023-07-29T14:34:27;2.50;;;1.70;;
5167;SDS011;2603;48.918;8.980;2023-07-29T14:36:54;2.40;;;1.27;;
5167;SDS011;2603;48.918;8.980;2023-07-29T14:39:20;3.60;;;1.70;;
5167;SDS011;2603;48.918;8.980;2023-07-29T14:41:47;2.73;;;1.70;;
5167;SDS011;2603;48.918;8.980;2023-07-29T14:44:13;3.10;;;1.10;;
5167;SDS011;2603;48.918;8.980;2023-07-29T14:46:42;3.40;;;1.53;;
5167;SDS011;2603;48.918;8.980;2023-07-29T14:49:09;3.40;;;1.37;;
5167;SDS011;2603;48.918;8.980;2023-07-29T14:51:35;3.00;;;1.17;;
5167;SDS011;2603;48.918;8.980;2023-07-29T14:54:02;3.20;;;1.30;;
5167;SDS011;2603;48.918;8.980;2023-07-29T14:56:29;2.33;;;1.50;;
5167;SDS011;2603;48.918;8.980;2023-07-29T14:58:55;3.70;;;1.37;;
5167;SDS011;2603;48.918;8.980;2023-07-29T15:01:22;2.27;;;1.20;;
5167;SDS011;2603;48.918;8.980;2023-07-29T15:03:50;2.10;;;1.23;;
5167;SDS011;2603;48.918;8.980;2023-07-29T15:06:16;2.90;;;1.40;;
5167;SDS011;2603;48.918;8.980;2023-07-29T15:08:43;3.00;;;1.43;;
5167;SDS011;2603;48.918;8.980;2023-07-29T15:11:09;2.50;;;1.40;;
5167;SDS011;2603;48.918;8.980;2023-07-29T15:13:36;1.80;;;1.10;;
5167;SDS011;2603;48.918;8.980;2023-07-29T15:16:03;2.60;;;1.60;;
5167;SDS011;2603;48.918;8.980;2023-07-29T15:18:31;4.03;;;1.37;;